createdAt,value
2023-03-03T00:01:39.828Z,0.80
2023-03-03T00:04:08.616Z,1.00
2023-03-03T00:06:36.974Z,1.07
2023-03-03T00:09:06.586Z,1.13
2023-03-03T00:11:35.389Z,0.97
2023-03-03T00:14:03.530Z,0.93
2023-03-03T00:16:37.125Z,1.03
2023-03-03T00:19:15.743Z,0.90
2023-03-03T00:21:47.248Z,1.20
2023-03-03T00:24:32.560Z,1.30
2023-03-03T00:27:09.183Z,1.30
2023-03-03T00:29:41.558Z,1.03
2023-03-03T00:32:23.985Z,0.70
2023-03-03T00:34:53.494Z,0.90
2023-03-03T00:37:28.305Z,1.00
2023-03-03T00:40:02.855Z,1.40
2023-03-03T00:42:31.099Z,0.87
2023-03-03T00:45:00.400Z,0.80
2023-03-03T00:47:32.068Z,1.10
2023-03-03T00:50:33.027Z,1.53
2023-03-03T00:53:07.479Z,0.87
2023-03-03T00:55:37.574Z,0.83
2023-03-03T00:58:06.152Z,1.03
2023-03-03T01:00:34.798Z,0.90
2023-03-03T01:03:05.268Z,1.40
2023-03-03T01:05:34.515Z,0.80
2023-03-03T01:08:03.165Z,1.03
2023-03-03T01:10:34.048Z,1.10
2023-03-03T01:13:04.552Z,1.80
2023-03-03T01:15:32.846Z,1.03
2023-03-03T01:18:01.467Z,1.30
2023-03-03T01:20:30.167Z,0.80
2023-03-03T01:22:58.381Z,0.90
2023-03-03T01:25:26.899Z,0.90
2023-03-03T01:27:55.788Z,0.73
2023-03-03T01:30:26.205Z,1.63
2023-03-03T01:32:54.915Z,1.33
2023-03-03T01:35:23.947Z,0.80
2023-03-03T01:37:52.249Z,1.30
2023-03-03T01:40:23.167Z,0.93
2023-03-03T01:42:52.707Z,0.80
2023-03-03T01:45:23.544Z,0.90
2023-03-03T01:48:01.331Z,0.80
2023-03-03T01:50:37.048Z,1.20
2023-03-03T01:53:08.521Z,1.00
2023-03-03T01:55:40.557Z,1.20
2023-03-03T01:58:12.714Z,1.00
2023-03-03T02:00:43.289Z,1.17
2023-03-03T02:03:13.475Z,1.00
2023-03-03T02:05:43.231Z,0.97
2023-03-03T02:08:16.719Z,1.43
2023-03-03T02:10:47.253Z,1.30
2023-03-03T02:13:15.960Z,0.93
2023-03-03T02:15:44.937Z,0.97
2023-03-03T02:18:17.079Z,0.77
2023-03-03T02:20:54.285Z,1.10
2023-03-03T02:23:27.587Z,1.90
2023-03-03T02:26:07.406Z,1.40
2023-03-03T02:28:37.991Z,0.90
2023-03-03T02:31:13.743Z,0.87
2023-03-03T02:33:43.065Z,0.80
2023-03-03T02:36:14.781Z,1.00
2023-03-03T02:38:47.379Z,0.97
2023-03-03T02:41:28.531Z,1.00
2023-03-03T02:44:01.018Z,0.90
2023-03-03T02:46:29.687Z,1.00
2023-03-03T02:48:58.515Z,1.03
2023-03-03T02:51:27.175Z,1.30
2023-03-03T02:53:55.938Z,1.10
2023-03-03T02:56:25.605Z,1.00
2023-03-03T02:58:53.805Z,0.83
2023-03-03T03:01:22.818Z,0.90
2023-03-03T03:03:51.343Z,1.30
2023-03-03T03:06:19.768Z,1.20
2023-03-03T03:08:48.099Z,0.90
2023-03-03T03:11:16.239Z,0.90
2023-03-03T03:13:45.865Z,1.10
2023-03-03T03:16:14.784Z,1.30
2023-03-03T03:18:43.173Z,0.93
2023-03-03T03:21:12.920Z,1.03
2023-03-03T03:23:42.222Z,1.17
2023-03-03T03:26:10.815Z,1.17
2023-03-03T03:28:39.452Z,0.80
2023-03-03T03:31:10.865Z,1.10
2023-03-03T03:33:39.035Z,0.90
2023-03-03T03:36:09.072Z,1.00
2023-03-03T03:38:38.581Z,1.00
2023-03-03T03:41:07.833Z,1.30
2023-03-03T03:43:36.978Z,1.00
2023-03-03T03:46:05.497Z,1.40
2023-03-03T03:48:35.262Z,1.03
2023-03-03T03:51:03.752Z,1.33
2023-03-03T03:53:32.706Z,1.10
2023-03-03T03:56:00.950Z,1.13
2023-03-03T03:58:29.862Z,0.90
2023-03-03T04:01:04.392Z,0.70
2023-03-03T04:03:34.658Z,0.70
2023-03-03T04:06:02.879Z,1.10
2023-03-03T04:08:31.174Z,1.10
2023-03-03T04:10:59.587Z,0.90
2023-03-03T04:13:28.997Z,1.30
2023-03-03T04:15:57.209Z,1.27
2023-03-03T04:18:25.490Z,0.70
2023-03-03T04:20:55.858Z,1.20
2023-03-03T04:23:24.013Z,1.00
2023-03-03T04:25:52.509Z,1.53
2023-03-03T04:28:22.018Z,1.27
2023-03-03T04:30:50.311Z,1.53
2023-03-03T04:33:19.008Z,0.93
2023-03-03T04:35:47.331Z,1.13
2023-03-03T04:38:17.463Z,1.03
2023-03-03T04:40:46.248Z,1.20
2023-03-03T04:43:14.458Z,1.33
2023-03-03T04:45:46.109Z,1.27
2023-03-03T04:48:14.740Z,1.03
2023-03-03T04:50:43.401Z,1.00
2023-03-03T04:53:11.630Z,1.30
2023-03-03T04:55:41.256Z,1.10
2023-03-03T04:58:10.387Z,1.10
2023-03-03T05:00:39.426Z,1.73
2023-03-03T05:03:07.542Z,1.40
2023-03-03T05:05:35.723Z,1.30
2023-03-03T05:08:03.830Z,1.17
2023-03-03T05:10:34.839Z,1.13
2023-03-03T05:13:05.022Z,1.20
2023-03-03T05:15:34.135Z,1.33
2023-03-03T05:18:02.406Z,1.03
2023-03-03T05:20:30.771Z,1.47
2023-03-03T05:23:01.533Z,1.73
2023-03-03T05:25:29.746Z,1.43
2023-03-03T05:27:58.440Z,1.00
2023-03-03T05:30:28.555Z,1.17
2023-03-03T05:32:56.653Z,1.33
2023-03-03T05:35:24.893Z,1.43
2023-03-03T05:37:53.503Z,1.53
2023-03-03T05:40:21.647Z,1.70
2023-03-03T05:42:49.973Z,1.67
2023-03-03T05:45:20.505Z,1.10
2023-03-03T05:47:50.441Z,1.77
2023-03-03T05:50:19.448Z,1.30
2023-03-03T05:52:49.848Z,0.80
2023-03-03T05:55:18.737Z,1.27
2023-03-03T05:57:47.050Z,1.93
2023-03-03T06:00:16.838Z,1.50
2023-03-03T06:02:45.693Z,1.70
2023-03-03T06:05:15.473Z,1.67
2023-03-03T06:07:43.906Z,2.07
2023-03-03T06:10:12.794Z,1.43
2023-03-03T06:12:42.174Z,1.60
2023-03-03T06:15:11.386Z,1.40
2023-03-03T06:17:39.830Z,1.17
2023-03-03T06:20:09.152Z,1.20
2023-03-03T06:22:38.875Z,1.20
2023-03-03T06:25:07.440Z,1.47
2023-03-03T06:27:35.729Z,1.80
2023-03-03T06:30:04.102Z,1.03
2023-03-03T06:32:32.357Z,1.23
2023-03-03T06:35:01.201Z,1.20
2023-03-03T06:37:29.517Z,1.00
2023-03-03T06:39:59.605Z,1.30
2023-03-03T06:42:27.875Z,1.57
2023-03-03T06:44:56.090Z,1.97
2023-03-03T06:47:24.431Z,1.07
2023-03-03T06:49:52.707Z,0.93
2023-03-03T06:52:26.925Z,1.37
2023-03-03T06:54:57.150Z,1.80
2023-03-03T06:57:29.478Z,1.23
2023-03-03T07:00:01.354Z,1.97
2023-03-03T07:02:29.872Z,1.80
2023-03-03T07:04:58.640Z,1.53
2023-03-03T07:07:27.578Z,1.40
2023-03-03T07:09:57.739Z,2.10
2023-03-03T07:12:30.572Z,1.70
2023-03-03T07:15:13.537Z,1.83
2023-03-03T07:17:45.624Z,2.13
2023-03-03T07:20:20.637Z,1.97
2023-03-03T07:22:49.901Z,1.83
2023-03-03T07:25:27.920Z,1.97
2023-03-03T07:28:02.155Z,1.50
2023-03-03T07:30:31.151Z,1.90
2023-03-03T07:33:00.607Z,2.00
2023-03-03T07:35:39.323Z,1.80
2023-03-03T07:38:24.499Z,1.70
2023-03-03T07:40:55.361Z,1.60
2023-03-03T07:43:45.092Z,1.93
2023-03-03T07:46:29.190Z,1.80
2023-03-03T07:48:58.720Z,1.43
2023-03-03T07:51:29.220Z,1.57
2023-03-03T07:54:18.892Z,1.53
2023-03-03T07:56:48.155Z,3.60
2023-03-03T07:59:22.528Z,1.60
2023-03-03T08:01:55.711Z,2.20
2023-03-03T08:04:28.669Z,2.43
2023-03-03T08:06:57.715Z,1.50
2023-03-03T08:09:41.244Z,2.20
2023-03-03T08:12:47.478Z,2.13
2023-03-03T08:15:22.857Z,2.00
2023-03-03T08:17:52.387Z,1.70
2023-03-03T08:20:45.589Z,2.00
2023-03-03T08:23:15.018Z,1.90
2023-03-03T08:25:43.696Z,1.20
2023-03-03T08:28:12.659Z,1.33
2023-03-03T08:30:43.654Z,2.00
2023-03-03T08:33:12.139Z,2.00
2023-03-03T08:35:40.480Z,2.13
2023-03-03T08:38:09.255Z,1.80
2023-03-03T08:40:38.467Z,1.23
2023-03-03T08:43:07.036Z,2.03
2023-03-03T08:45:36.443Z,2.23
2023-03-03T08:48:06.417Z,1.63
2023-03-03T08:50:34.587Z,1.70
2023-03-03T08:53:02.904Z,1.97
2023-03-03T08:55:31.071Z,1.90
2023-03-03T08:57:59.452Z,1.80
2023-03-03T09:00:28.236Z,1.93
2023-03-03T09:02:56.590Z,1.30
2023-03-03T09:05:27.103Z,1.70
2023-03-03T09:07:56.632Z,1.70
2023-03-03T09:10:30.891Z,1.57
2023-03-03T09:13:02.008Z,1.77
2023-03-03T09:15:31.765Z,2.10
2023-03-03T09:18:01.393Z,1.87
2023-03-03T09:20:37.678Z,2.30
2023-03-03T09:23:33.733Z,1.67
2023-03-03T09:26:35.000Z,1.43
2023-03-03T09:29:19.819Z,1.30
2023-03-03T09:31:51.842Z,1.93
2023-03-03T09:34:25.586Z,2.53
2023-03-03T09:36:56.317Z,2.17
2023-03-03T09:39:26.373Z,1.57
2023-03-03T09:42:27.469Z,1.50
2023-03-03T09:45:28.600Z,1.60
2023-03-03T09:48:39.848Z,1.40
2023-03-03T09:51:21.997Z,3.67
2023-03-03T09:54:18.410Z,1.87
2023-03-03T09:56:54.304Z,1.60
2023-03-03T09:59:33.226Z,1.83
2023-03-03T10:02:30.815Z,1.80
2023-03-03T10:05:15.949Z,1.73
2023-03-03T10:07:56.625Z,1.57
2023-03-03T10:10:49.905Z,1.53
2023-03-03T10:13:27.578Z,1.30
2023-03-03T10:16:17.066Z,2.43
2023-03-03T10:18:50.945Z,1.93
2023-03-03T10:21:25.479Z,1.90
2023-03-03T10:23:58.820Z,1.43
2023-03-03T10:27:12.906Z,1.17
2023-03-03T10:29:52.426Z,1.20
2023-03-03T10:32:35.207Z,1.27
2023-03-03T10:35:36.733Z,0.90
2023-03-03T10:38:21.853Z,1.20
2023-03-03T10:40:56.941Z,1.57
2023-03-03T10:43:47.236Z,1.70
2023-03-03T10:46:40.652Z,1.27
2023-03-03T10:49:21.343Z,1.03
2023-03-03T10:52:04.711Z,0.90
2023-03-03T10:54:47.270Z,1.10
2023-03-03T10:57:23.163Z,1.23
2023-03-03T11:00:17.012Z,1.40
2023-03-03T11:02:57.707Z,1.67
2023-03-03T11:05:36.351Z,1.10
2023-03-03T11:08:10.156Z,1.00
2023-03-03T11:11:01.954Z,0.83
2023-03-03T11:13:41.066Z,1.10
2023-03-03T11:16:47.589Z,0.90
2023-03-03T11:19:52.868Z,1.30
2023-03-03T11:22:36.249Z,2.03
2023-03-03T11:25:16.780Z,1.47
2023-03-03T11:28:02.217Z,0.93
2023-03-03T11:30:41.305Z,0.97
2023-03-03T11:33:16.556Z,0.90
2023-03-03T11:35:49.013Z,0.80
2023-03-03T11:38:35.953Z,1.10
2023-03-03T11:41:13.034Z,0.97
2023-03-03T11:43:46.212Z,1.00
2023-03-03T11:46:18.236Z,1.17
2023-03-03T11:48:58.487Z,0.97
2023-03-03T11:51:38.153Z,0.90
2023-03-03T11:54:11.958Z,1.13
2023-03-03T11:56:42.997Z,0.90
2023-03-03T11:59:39.336Z,1.33
2023-03-03T12:02:19.989Z,1.37
2023-03-03T12:04:54.206Z,1.40
2023-03-03T12:07:29.147Z,0.83
2023-03-03T12:10:06.666Z,0.90
2023-03-03T12:12:42.288Z,1.10
2023-03-03T12:15:20.931Z,1.33
2023-03-03T12:18:03.285Z,1.17
2023-03-03T12:20:42.157Z,0.90
2023-03-03T12:23:21.103Z,0.97
2023-03-03T12:25:58.525Z,1.23
2023-03-03T12:28:34.268Z,1.10
2023-03-03T12:31:22.842Z,0.60
2023-03-03T12:33:57.172Z,1.00
2023-03-03T12:37:06.536Z,1.23
2023-03-03T12:39:46.875Z,1.13
2023-03-03T12:42:25.998Z,0.77
2023-03-03T12:45:04.721Z,1.10
2023-03-03T12:47:40.190Z,1.20
2023-03-03T12:50:24.585Z,1.20
2023-03-03T12:53:09.857Z,0.80
2023-03-03T12:55:49.388Z,0.70
2023-03-03T12:58:29.436Z,0.93
2023-03-03T13:01:07.170Z,1.20
2023-03-03T13:03:54.881Z,0.80
2023-03-03T13:06:31.463Z,1.13
2023-03-03T13:09:16.959Z,0.77
2023-03-03T13:12:01.505Z,1.00
2023-03-03T13:14:39.132Z,0.83
2023-03-03T13:17:19.569Z,1.27
2023-03-03T13:19:53.758Z,0.70
2023-03-03T13:22:40.784Z,1.10
2023-03-03T13:25:42.518Z,1.03
2023-03-03T13:28:22.362Z,0.50
2023-03-03T13:30:55.184Z,1.20
2023-03-03T13:33:28.767Z,0.90
2023-03-03T13:36:01.033Z,0.80
2023-03-03T13:38:32.460Z,0.87
2023-03-03T13:41:12.139Z,0.60
2023-03-03T13:43:47.610Z,0.77
2023-03-03T13:46:26.238Z,0.93
2023-03-03T13:49:08.410Z,0.57
2023-03-03T13:51:45.575Z,0.93
2023-03-03T13:54:22.576Z,1.17
2023-03-03T13:57:11.499Z,0.80
2023-03-03T13:59:49.721Z,1.00
2023-03-03T14:02:46.544Z,0.80
2023-03-03T14:05:18.669Z,0.77
2023-03-03T14:07:53.499Z,0.70
2023-03-03T14:10:27.588Z,0.90
2023-03-03T14:13:04.969Z,1.00
2023-03-03T14:15:36.828Z,0.70
2023-03-03T14:18:23.169Z,0.90
2023-03-03T14:20:54.030Z,0.60
2023-03-03T14:23:28.837Z,0.80
2023-03-03T14:26:07.944Z,0.60
2023-03-03T14:28:44.188Z,0.80
2023-03-03T14:31:22.754Z,0.70
2023-03-03T14:34:03.292Z,0.70
2023-03-03T14:36:41.724Z,0.50
2023-03-03T14:39:32.220Z,0.93
2023-03-03T14:42:00.741Z,0.80
2023-03-03T14:44:33.170Z,0.97
2023-03-03T14:47:24.290Z,0.60
2023-03-03T14:49:54.759Z,0.73
2023-03-03T14:52:26.445Z,0.60
2023-03-03T14:54:56.920Z,0.70
2023-03-03T14:57:46.389Z,0.73
2023-03-03T15:00:36.123Z,0.80
2023-03-03T15:03:19.846Z,0.83
2023-03-03T15:05:52.246Z,0.70
2023-03-03T15:08:31.874Z,0.80
2023-03-03T15:11:15.872Z,0.70
2023-03-03T15:13:44.130Z,0.90
2023-03-03T15:16:19.781Z,0.63
2023-03-03T15:19:39.713Z,0.93
2023-03-03T15:22:17.678Z,0.80
2023-03-03T15:24:52.982Z,0.80
2023-03-03T15:27:27.612Z,0.73
2023-03-03T15:30:04.392Z,0.80
2023-03-03T15:32:43.317Z,1.10
2023-03-03T15:35:24.970Z,0.80
2023-03-03T15:38:01.031Z,0.90
2023-03-03T15:40:31.197Z,0.80
2023-03-03T15:43:10.985Z,0.57
2023-03-03T15:45:47.324Z,1.00
2023-03-03T15:48:36.948Z,0.97
2023-03-03T15:51:15.353Z,0.93
2023-03-03T15:54:06.079Z,0.70
2023-03-03T15:56:40.543Z,0.83
2023-03-03T15:59:37.217Z,1.00
2023-03-03T16:02:17.867Z,1.00
2023-03-03T16:05:00.490Z,1.00
2023-03-03T16:07:39.452Z,1.10
2023-03-03T16:10:18.798Z,0.80
2023-03-03T16:12:56.804Z,0.90
2023-03-03T16:15:42.645Z,1.07
2023-03-03T16:18:20.879Z,0.70
2023-03-03T16:21:01.449Z,0.70
2023-03-03T16:23:38.769Z,0.83
2023-03-03T16:26:17.522Z,0.80
2023-03-03T16:29:01.064Z,0.67
2023-03-03T16:31:33.643Z,1.00
2023-03-03T16:34:12.059Z,0.60
2023-03-03T16:36:56.123Z,0.80
2023-03-03T16:39:31.212Z,0.70
2023-03-03T16:42:04.885Z,0.90
2023-03-03T16:44:43.639Z,0.67
2023-03-03T16:47:30.361Z,0.80
2023-03-03T16:50:10.935Z,0.87
2023-03-03T16:52:46.524Z,0.80
2023-03-03T16:55:19.539Z,0.90
2023-03-03T16:58:01.006Z,0.53
2023-03-03T17:00:31.640Z,0.73
2023-03-03T17:03:30.667Z,0.80
2023-03-03T17:06:05.797Z,0.60
2023-03-03T17:08:53.824Z,0.80
2023-03-03T17:11:35.102Z,0.60
2023-03-03T17:14:18.738Z,0.90
2023-03-03T17:16:57.212Z,0.80
2023-03-03T17:19:46.584Z,0.60
2023-03-03T17:22:21.143Z,0.80
2023-03-03T17:25:13.917Z,0.80
2023-03-03T17:27:55.616Z,0.80
2023-03-03T17:30:31.621Z,0.63
2023-03-03T17:33:22.227Z,0.70
2023-03-03T17:36:04.735Z,0.90
2023-03-03T17:38:42.115Z,0.70
2023-03-03T17:41:22.507Z,0.80
2023-03-03T17:43:59.341Z,1.17
2023-03-03T17:46:34.670Z,0.70
2023-03-03T17:49:36.538Z,0.90
2023-03-03T17:52:29.331Z,0.70
2023-03-03T17:55:09.358Z,0.77
2023-03-03T17:57:54.267Z,0.60
2023-03-03T18:00:43.919Z,1.07
2023-03-03T18:03:39.872Z,0.77
2023-03-03T18:06:32.857Z,0.90
2023-03-03T18:09:15.422Z,0.83
2023-03-03T18:12:00.241Z,0.70
2023-03-03T18:14:50.741Z,0.70
2023-03-03T18:17:38.215Z,0.57
2023-03-03T18:20:52.857Z,0.80
2023-03-03T18:23:30.864Z,0.50
2023-03-03T18:26:00.624Z,0.60
2023-03-03T18:28:48.877Z,0.63
2023-03-03T18:31:24.914Z,0.40
2023-03-03T18:34:08.915Z,0.30
2023-03-03T18:36:40.318Z,0.50
2023-03-03T18:39:15.010Z,0.53
2023-03-03T18:42:07.276Z,0.53
2023-03-03T18:44:35.871Z,0.30
2023-03-03T18:47:05.516Z,0.73
2023-03-03T18:49:57.633Z,0.77
2023-03-03T18:52:29.892Z,0.50
2023-03-03T18:55:23.977Z,0.60
2023-03-03T18:58:37.766Z,0.50
2023-03-03T19:01:28.283Z,0.40
2023-03-03T19:04:10.712Z,0.60
2023-03-03T19:07:11.962Z,0.30
2023-03-03T19:09:52.572Z,0.33
2023-03-03T19:12:52.647Z,0.63
2023-03-03T19:15:47.207Z,0.60
2023-03-03T19:18:19.695Z,0.70
2023-03-03T19:20:53.958Z,0.43
2023-03-03T19:23:24.881Z,0.50
2023-03-03T19:26:20.926Z,0.47
2023-03-03T19:28:58.776Z,1.50
2023-03-03T19:31:33.400Z,0.40
2023-03-03T19:34:08.117Z,0.50
2023-03-03T19:36:56.122Z,0.53
2023-03-03T19:39:46.290Z,0.60
2023-03-03T19:42:24.038Z,0.50
2023-03-03T19:45:20.531Z,0.53
2023-03-03T19:47:52.629Z,0.70
2023-03-03T19:50:41.740Z,0.50
2023-03-03T19:53:21.623Z,0.30
2023-03-03T19:56:11.460Z,0.70
2023-03-03T19:58:51.101Z,0.50
2023-03-03T20:01:25.965Z,0.37
2023-03-03T20:04:14.738Z,0.47
2023-03-03T20:06:53.520Z,0.60
2023-03-03T20:09:33.852Z,0.70
2023-03-03T20:12:21.201Z,0.40
2023-03-03T20:14:54.960Z,0.50
2023-03-03T20:17:41.931Z,0.60
2023-03-03T20:20:25.925Z,0.87
2023-03-03T20:23:03.152Z,0.40
2023-03-03T20:25:41.292Z,0.40
2023-03-03T20:28:25.008Z,0.70
2023-03-03T20:31:03.168Z,0.33
2023-03-03T20:33:44.238Z,0.40
2023-03-03T20:36:18.500Z,0.50
2023-03-03T20:38:56.791Z,0.40
2023-03-03T20:41:34.036Z,0.40
2023-03-03T20:44:15.616Z,0.60
2023-03-03T20:46:55.119Z,0.50
2023-03-03T20:49:53.356Z,0.60
2023-03-03T20:52:29.776Z,0.70
2023-03-03T20:55:10.753Z,0.70
2023-03-03T20:57:51.115Z,0.87
2023-03-03T21:00:26.206Z,0.50
2023-03-03T21:03:06.391Z,0.50
2023-03-03T21:05:35.292Z,0.40
2023-03-03T21:08:08.193Z,0.60
2023-03-03T21:10:38.459Z,0.47
2023-03-03T21:13:29.981Z,1.00
2023-03-03T21:16:01.473Z,0.60
2023-03-03T21:18:30.099Z,0.47
2023-03-03T21:20:58.233Z,0.60
2023-03-03T21:23:26.620Z,0.70
2023-03-03T21:25:56.663Z,0.40
2023-03-03T21:28:28.429Z,0.50
2023-03-03T21:31:14.663Z,0.83
2023-03-03T21:33:49.136Z,1.10
2023-03-03T21:36:19.139Z,0.50
2023-03-03T21:38:48.343Z,0.70
2023-03-03T21:41:18.184Z,0.40
2023-03-03T21:43:49.883Z,0.70
2023-03-03T21:46:23.527Z,0.73
2023-03-03T21:48:52.576Z,0.53
2023-03-03T21:51:21.477Z,0.60
2023-03-03T21:53:50.400Z,0.60
2023-03-03T21:56:18.515Z,0.80
2023-03-03T21:58:48.063Z,1.20
2023-03-03T22:01:17.798Z,0.43
2023-03-03T22:03:47.643Z,0.40
2023-03-03T22:06:15.790Z,0.73
2023-03-03T22:08:44.153Z,0.60
2023-03-03T22:11:14.690Z,0.33
2023-03-03T22:13:43.773Z,0.70
2023-03-03T22:16:13.927Z,1.00
2023-03-03T22:18:42.154Z,0.47
2023-03-03T22:21:10.347Z,0.97
2023-03-03T22:23:39.022Z,0.60
2023-03-03T22:26:07.499Z,0.70
2023-03-03T22:28:35.669Z,0.47
2023-03-03T22:31:04.027Z,0.70
2023-03-03T22:33:33.809Z,0.60
2023-03-03T22:36:02.036Z,0.60
2023-03-03T22:38:30.330Z,1.03
2023-03-03T22:40:58.440Z,0.80
2023-03-03T22:43:27.529Z,0.60
2023-03-03T22:45:56.385Z,0.63
2023-03-03T22:48:25.517Z,0.70
2023-03-03T22:50:55.308Z,0.53
2023-03-03T22:53:24.334Z,0.60
2023-03-03T22:55:52.789Z,0.63
2023-03-03T22:58:25.770Z,0.60
2023-03-03T23:00:55.102Z,0.80
2023-03-03T23:03:24.836Z,0.70
2023-03-03T23:05:55.173Z,0.80
2023-03-03T23:08:23.395Z,0.77
2023-03-03T23:10:51.576Z,0.80
2023-03-03T23:13:20.271Z,0.80
2023-03-03T23:15:48.512Z,0.70
2023-03-03T23:18:16.737Z,0.97
2023-03-03T23:20:46.214Z,0.73
2023-03-03T23:23:15.823Z,0.60
2023-03-03T23:25:44.032Z,1.10
2023-03-03T23:28:15.908Z,0.93
2023-03-03T23:30:44.187Z,0.70
2023-03-03T23:33:12.416Z,0.80
2023-03-03T23:35:40.786Z,0.97
2023-03-03T23:38:08.948Z,0.60
2023-03-03T23:40:38.482Z,0.67
2023-03-03T23:43:07.341Z,0.43
2023-03-03T23:45:35.519Z,0.90
2023-03-03T23:48:03.795Z,0.80
2023-03-03T23:50:33.325Z,0.70
2023-03-03T23:53:01.564Z,0.53
2023-03-03T23:55:29.686Z,0.90
2023-03-03T23:57:59.833Z,0.50
